Time;durP1;ratioP1;P1;durP2;ratioP2;P2;SDS_P1;SDS_P2;PMS_P1;PMS_P2;Temp;Humidity;BMP_temperature;BMP_pressure;BME280_temperature;BME280_humidity;BME280_pressure;Samples;Min_cycle;Max_cycle;Signal;HPM_P1;HPM_P2
2021/10/19 00:00:39;;;;;;;5.97;3.03;;;17.10;99.90;;;;;;5010588;28;20125;-90
2021/10/19 00:03:19;;;;;;;7.55;3.03;;;17.10;99.90;;;;;;4997722;28;20042;-93
2021/10/19 00:05:48;;;;;;;5.40;2.35;;;17.20;99.90;;;;;;5003623;28;20050;-90
2021/10/19 00:08:17;;;;;;;6.32;2.80;;;17.10;99.90;;;;;;4983504;28;20065;-90
2021/10/19 00:10:47;;;;;;;3.65;2.25;;;17.20;99.90;;;;;;5003445;28;20056;-91
2021/10/19 00:13:15;;;;;;;3.13;2.10;;;17.20;99.90;;;;;;5001353;28;20057;-91
2021/10/19 00:15:46;;;;;;;5.67;2.33;;;16.80;99.90;;;;;;5014204;28;20042;-89
2021/10/19 00:18:16;;;;;;;4.28;2.15;;;17.20;99.90;;;;;;4987623;28;20303;-89
2021/10/19 00:20:45;;;;;;;5.65;2.47;;;17.20;99.90;;;;;;5000625;28;20516;-89
2021/10/19 00:23:13;;;;;;;5.75;2.75;;;17.20;99.90;;;;;;5018905;28;20042;-92
2021/10/19 00:25:45;;;;;;;6.63;3.10;;;17.20;99.90;;;;;;4985881;28;20064;-89
2021/10/19 00:28:14;;;;;;;7.80;2.60;;;17.30;99.90;;;;;;5001540;28;20050;-90
2021/10/19 00:30:42;;;;;;;4.78;2.42;;;17.30;99.90;;;;;;4996341;28;20064;-90
2021/10/19 00:33:10;;;;;;;6.38;2.85;;;17.20;99.90;;;;;;4995319;28;20054;-91
2021/10/19 00:35:38;;;;;;;6.25;2.67;;;17.20;99.90;;;;;;4979751;28;20050;-91
2021/10/19 00:38:06;;;;;;;8.02;3.47;;;17.20;99.90;;;;;;4989406;28;20057;-90
2021/10/19 00:40:36;;;;;;;7.43;2.83;;;17.20;99.90;;;;;;4999608;28;20035;-92
2021/10/19 00:43:06;;;;;;;7.07;2.85;;;17.30;99.90;;;;;;5007631;28;20058;-90
2021/10/19 00:45:34;;;;;;;9.40;3.03;;;17.30;99.90;;;;;;5009815;28;20046;-89
2021/10/19 00:48:05;;;;;;;6.68;2.90;;;17.30;99.90;;;;;;4986506;28;20057;-90
2021/10/19 00:50:36;;;;;;;6.95;3.22;;;17.30;99.90;;;;;;4980271;28;20042;-90
2021/10/19 00:53:09;;;;;;;6.72;3.15;;;17.30;99.90;;;;;;4994673;28;20049;-88
2021/10/19 00:55:37;;;;;;;6.25;2.92;;;17.30;99.90;;;;;;5003345;28;20042;-89
2021/10/19 00:58:06;;;;;;;11.45;3.40;;;17.40;99.90;;;;;;4992872;28;20058;-90
2021/10/19 01:00:36;;;;;;;10.45;3.17;;;17.40;99.90;;;;;;5009014;28;20053;-92
2021/10/19 01:03:04;;;;;;;7.83;3.43;;;17.40;99.90;;;;;;5010950;28;20049;-90
2021/10/19 01:05:34;;;;;;;7.63;2.72;;;17.40;99.90;;;;;;4999340;28;20034;-90
2021/10/19 01:08:03;;;;;;;7.13;2.67;;;17.40;99.90;;;;;;4994420;28;20053;-90
2021/10/19 01:10:31;;;;;;;9.05;3.47;;;17.40;99.90;;;;;;4994994;28;20053;-91
2021/10/19 01:12:59;;;;;;;7.35;3.53;;;17.40;99.90;;;;;;4996274;28;20049;-89
2021/10/19 01:15:32;;;;;;;5.82;2.70;;;17.40;99.90;;;;;;5012070;28;20057;-90
2021/10/19 01:18:00;;;;;;;6.88;3.25;;;17.40;99.90;;;;;;4999802;28;20049;-90
2021/10/19 01:20:32;;;;;;;8.02;3.67;;;17.40;99.90;;;;;;4994326;28;20057;-91
2021/10/19 01:23:02;;;;;;;11.80;3.38;;;17.40;99.90;;;;;;4993037;28;20049;-89
2021/10/19 01:25:32;;;;;;;7.90;3.92;;;17.40;99.90;;;;;;4993957;28;20049;-90
2021/10/19 01:28:03;;;;;;;6.85;3.25;;;17.50;99.90;;;;;;5015884;28;20057;-90
2021/10/19 01:30:32;;;;;;;10.45;3.90;;;17.40;99.90;;;;;;5007829;28;20525;-87
2021/10/19 01:33:00;;;;;;;7.88;4.35;;;17.50;99.90;;;;;;4987549;28;20469;-89
2021/10/19 01:35:39;;;;;;;9.65;4.38;;;17.50;99.90;;;;;;4985448;28;20053;-91
2021/10/19 01:38:12;;;;;;;8.50;4.28;;;17.50;99.90;;;;;;4984214;28;20057;-89
2021/10/19 01:40:40;;;;;;;9.35;4.22;;;17.50;99.90;;;;;;5016439;28;20053;-91
2021/10/19 01:43:10;;;;;;;11.38;4.72;;;17.50;99.90;;;;;;4981284;28;20420;-89
2021/10/19 01:45:39;;;;;;;10.02;4.78;;;17.50;99.90;;;;;;4998356;28;20057;-89
2021/10/19 01:48:09;;;;;;;7.10;3.60;;;17.40;99.90;;;;;;4986664;28;20675;-92
2021/10/19 01:50:37;;;;;;;7.80;3.80;;;17.50;99.90;;;;;;4997723;28;20386;-90
2021/10/19 01:53:06;;;;;;;9.55;3.45;;;17.50;99.90;;;;;;5006224;28;20046;-90
2021/10/19 01:55:36;;;;;;;6.60;3.10;;;17.50;99.90;;;;;;4995653;28;20041;-90
2021/10/19 01:58:08;;;;;;;5.10;2.90;;;17.50;99.90;;;;;;4992148;28;20057;-90
2021/10/19 02:00:37;;;;;;;4.03;2.70;;;17.50;99.90;;;;;;4987816;28;20042;-90
2021/10/19 02:03:09;;;;;;;3.03;1.92;;;17.50;99.90;;;;;;4984052;28;20057;-88
2021/10/19 02:05:37;;;;;;;6.03;2.25;;;17.50;99.90;;;;;;5008952;28;20058;-89
2021/10/19 02:08:05;;;;;;;5.20;1.98;;;17.50;99.90;;;;;;4996242;28;20041;-89
2021/10/19 02:10:34;;;;;;;1.80;1.40;;;17.50;99.90;;;;;;4997542;28;20413;-89
2021/10/19 02:13:05;;;;;;;1.65;1.20;;;17.50;99.90;;;;;;4980321;28;20073;-91
2021/10/19 02:15:34;;;;;;;1.60;1.10;;;17.50;99.90;;;;;;4994498;28;20066;-91
2021/10/19 02:18:07;;;;;;;3.72;0.98;;;17.50;99.90;;;;;;5000424;28;20058;-89
2021/10/19 02:20:37;;;;;;;1.77;0.80;;;17.40;99.90;;;;;;4995319;28;20054;-89
2021/10/19 02:23:08;;;;;;;3.08;0.98;;;17.50;99.90;;;;;;4997413;28;20064;-90
2021/10/19 02:25:37;;;;;;;3.78;1.27;;;17.50;99.90;;;;;;4987236;28;20057;-90
2021/10/19 02:28:06;;;;;;;1.17;0.75;;;17.50;99.90;;;;;;4983681;28;20057;-90
2021/10/19 02:30:34;;;;;;;1.95;0.85;;;17.60;99.90;;;;;;5008812;28;20414;-91
2021/10/19 02:33:02;;;;;;;3.00;0.70;;;17.60;99.90;;;;;;5002341;28;20385;-89
2021/10/19 02:35:30;;;;;;;1.70;1.45;;;17.60;99.90;;;;;;5019368;28;20317;-90
2021/10/19 02:37:58;;;;;;;2.28;1.05;;;17.60;99.90;;;;;;4999476;28;20053;-90
2021/10/19 02:40:26;;;;;;;1.40;0.70;;;17.60;99.90;;;;;;5002927;28;20591;-89
2021/10/19 02:42:57;;;;;;;2.80;1.48;;;17.40;99.90;;;;;;5016241;28;20054;-90
2021/10/19 02:48:43;;;;;;;3.75;1.30;;;17.60;99.90;;;;;;4922045;23;20050;-90
2021/10/19 02:51:12;;;;;;;3.63;1.40;;;17.10;99.90;;;;;;4830610;29;20054;-92
2021/10/19 02:53:42;;;;;;;1.83;1.30;;;17.60;99.90;;;;;;4813350;29;20058;-91
2021/10/19 02:56:10;;;;;;;2.38;1.55;;;17.70;99.90;;;;;;4813949;29;20062;-91
2021/10/19 02:58:38;;;;;;;1.33;1.13;;;17.70;99.90;;;;;;4824591;29;20411;-89
2021/10/19 03:01:06;;;;;;;3.75;1.77;;;17.70;99.90;;;;;;4803801;29;20070;-90
2021/10/19 03:03:34;;;;;;;8.80;2.08;;;17.70;99.90;;;;;;4793208;29;20058;-90
2021/10/19 03:06:04;;;;;;;2.35;1.70;;;17.70;99.90;;;;;;4811896;29;20046;-91
2021/10/19 03:08:33;;;;;;;2.30;2.05;;;17.70;99.90;;;;;;4796697;29;20065;-89
2021/10/19 03:11:03;;;;;;;5.93;1.70;;;17.70;99.90;;;;;;4828564;29;20046;-90
2021/10/19 03:13:35;;;;;;;2.58;1.48;;;17.70;99.90;;;;;;4809363;29;20055;-89
2021/10/19 03:16:16;;;;;;;2.65;1.75;;;17.70;99.90;;;;;;4825252;29;20050;-91
2021/10/19 03:18:45;;;;;;;1.77;1.35;;;17.70;99.90;;;;;;4824311;29;20054;-90
2021/10/19 03:21:13;;;;;;;3.42;1.45;;;17.70;99.90;;;;;;4827961;29;20061;-90
2021/10/19 03:23:45;;;;;;;1.63;1.52;;;17.70;99.90;;;;;;4827099;29;20065;-89
2021/10/19 03:26:16;;;;;;;4.10;1.40;;;17.70;99.90;;;;;;4797562;29;20070;-89
2021/10/19 03:28:45;;;;;;;2.33;1.30;;;17.70;99.90;;;;;;4827616;29;20054;-89
2021/10/19 03:31:14;;;;;;;1.58;1.20;;;17.70;99.90;;;;;;4826793;29;20069;-89
2021/10/19 03:33:43;;;;;;;3.13;1.35;;;17.70;99.90;;;;;;4824955;29;20050;-89
2021/10/19 03:36:13;;;;;;;1.55;1.20;;;17.70;99.90;;;;;;4826491;29;20058;-89
2021/10/19 03:38:41;;;;;;;4.93;1.25;;;17.70;99.90;;;;;;4824774;29;20051;-91
2021/10/19 03:41:09;;;;;;;2.75;1.33;;;17.70;99.90;;;;;;4824675;29;20054;-89
2021/10/19 03:43:38;;;;;;;3.65;1.60;;;17.70;99.90;;;;;;4823338;29;20058;-89
2021/10/19 03:46:05;;;;;;;1.33;1.00;;;17.70;99.90;;;;;;4822195;29;20058;-91
2021/10/19 03:48:33;;;;;;;1.25;1.10;;;17.70;99.90;;;;;;4821433;29;20066;-90
2021/10/19 03:51:01;;;;;;;1.13;1.00;;;17.70;99.90;;;;;;4806427;29;20065;-88
2021/10/19 03:53:31;;;;;;;1.30;0.90;;;17.70;99.90;;;;;;4808728;29;20050;-90
2021/10/19 03:55:59;;;;;;;0.60;0.60;;;17.70;99.90;;;;;;4823885;29;20415;-90
2021/10/19 03:58:28;;;;;;;3.10;0.90;;;17.70;99.90;;;;;;4809413;29;20483;-88
2021/10/19 04:00:56;;;;;;;0.65;0.60;;;17.70;99.90;;;;;;4824168;29;20427;-91
2021/10/19 04:03:24;;;;;;;2.22;0.80;;;17.70;99.90;;;;;;4826921;29;20058;-90
2021/10/19 04:05:53;;;;;;;1.95;0.70;;;17.70;99.90;;;;;;4142813;29;10000623;-91
2021/10/19 04:08:21;;;;;;;1.80;0.70;;;17.80;99.90;;;;;;4823848;29;20050;-91
2021/10/19 04:10:50;;;;;;;0.70;0.50;;;17.80;99.90;;;;;;4823931;29;20069;-90
2021/10/19 04:13:18;;;;;;;1.85;0.70;;;17.80;99.90;;;;;;4808706;29;20055;-92
2021/10/19 04:15:46;;;;;;;5.35;0.68;;;17.80;99.90;;;;;;4824842;29;20057;-90
2021/10/19 04:18:14;;;;;;;0.50;0.50;;;17.80;99.90;;;;;;4808985;29;20066;-90
2021/10/19 04:20:49;;;;;;;1.20;0.65;;;17.80;99.90;;;;;;4825779;29;20069;-90
2021/10/19 04:23:17;;;;;;;1.70;1.00;;;17.80;99.90;;;;;;4810330;29;20046;-90
2021/10/19 04:25:46;;;;;;;2.40;0.75;;;17.90;99.90;;;;;;4813577;29;20062;-89
2021/10/19 04:28:14;;;;;;;1.25;0.45;;;17.80;99.90;;;;;;4818100;29;20051;-91
2021/10/19 04:30:44;;;;;;;2.17;0.60;;;17.90;99.90;;;;;;4813435;29;20051;-89
2021/10/19 04:33:13;;;;;;;3.72;0.80;;;17.90;99.90;;;;;;4806118;29;20093;-90
2021/10/19 04:35:43;;;;;;;0.70;0.60;;;17.90;99.90;;;;;;4826596;29;20050;-92
2021/10/19 04:38:11;;;;;;;0.85;0.60;;;17.90;99.90;;;;;;4823301;29;20051;-90
2021/10/19 04:40:39;;;;;;;2.13;0.82;;;17.90;99.90;;;;;;4824635;29;20248;-91
2021/10/19 04:43:07;;;;;;;1.75;0.70;;;17.90;99.90;;;;;;4792549;29;20066;-89
2021/10/19 04:45:36;;;;;;;1.33;0.70;;;17.90;99.90;;;;;;4824236;29;20288;-90
2021/10/19 04:48:04;;;;;;;1.25;0.60;;;17.90;99.90;;;;;;4823821;29;20050;-89
2021/10/19 04:50:34;;;;;;;3.22;0.90;;;17.90;99.90;;;;;;4812306;29;20050;-91
2021/10/19 04:53:02;;;;;;;2.53;0.70;;;17.90;99.90;;;;;;4823009;29;20070;-88
2021/10/19 04:55:30;;;;;;;2.47;0.70;;;17.90;99.90;;;;;;4824545;29;20047;-91
2021/10/19 04:58:00;;;;;;;2.17;0.77;;;17.90;99.90;;;;;;4826178;29;20050;-89
2021/10/19 05:00:30;;;;;;;3.25;1.33;;;18.00;99.90;;;;;;4809228;29;20046;-90
2021/10/19 05:02:58;;;;;;;6.53;1.75;;;17.90;99.90;;;;;;4829192;29;20074;-91
2021/10/19 05:05:28;;;;;;;0.75;0.70;;;18.00;99.90;;;;;;4824345;29;20051;-92
2021/10/19 05:07:56;;;;;;;1.23;0.77;;;18.00;99.90;;;;;;4808073;29;20051;-90
2021/10/19 05:10:25;;;;;;;0.85;0.40;;;18.00;99.90;;;;;;4825631;29;20050;-91
2021/10/19 05:12:55;;;;;;;1.38;0.70;;;17.90;99.90;;;;;;4827692;29;20047;-91
2021/10/19 05:15:25;;;;;;;2.35;0.52;;;18.00;99.90;;;;;;4816776;29;20050;-89
2021/10/19 05:17:53;;;;;;;0.65;0.50;;;18.20;99.90;;;;;;4810822;29;20504;-91
2021/10/19 05:20:22;;;;;;;1.33;0.77;;;18.00;99.90;;;;;;4827396;29;20917;-92
2021/10/19 05:22:51;;;;;;;2.58;1.00;;;18.00;99.90;;;;;;4823733;29;20046;-88
2021/10/19 05:25:20;;;;;;;1.25;0.93;;;18.00;99.90;;;;;;4824949;29;20061;-90
2021/10/19 05:27:48;;;;;;;1.42;0.80;;;18.00;99.90;;;;;;4827493;29;20042;-90
2021/10/19 05:30:17;;;;;;;1.35;1.25;;;18.10;99.90;;;;;;4840161;29;20065;-89
2021/10/19 05:32:51;;;;;;;1.75;0.98;;;18.10;99.90;;;;;;4828795;29;20058;-88
2021/10/19 05:35:21;;;;;;;1.25;1.10;;;18.10;99.90;;;;;;4811521;29;20050;-90
2021/10/19 05:37:50;;;;;;;1.90;0.80;;;17.60;99.90;;;;;;4828115;29;20825;-91
2021/10/19 05:40:19;;;;;;;1.55;1.10;;;18.10;99.90;;;;;;4801486;29;20133;-91
2021/10/19 05:42:49;;;;;;;4.65;1.45;;;18.10;99.90;;;;;;4831544;29;20058;-91
2021/10/19 05:45:18;;;;;;;3.08;1.42;;;18.10;99.90;;;;;;4815238;29;20062;-91
2021/10/19 05:47:46;;;;;;;1.25;0.85;;;18.10;99.90;;;;;;4820102;29;20051;-91
2021/10/19 05:50:17;;;;;;;2.33;1.25;;;18.10;99.90;;;;;;4816509;29;20047;-91
2021/10/19 05:52:47;;;;;;;7.28;1.10;;;18.10;99.90;;;;;;4798315;29;20077;-90
2021/10/19 05:55:18;;;;;;;2.22;0.88;;;18.00;99.90;;;;;;4831626;29;20054;-90
2021/10/19 05:58:14;;;;;;;5.05;1.00;;;18.10;99.90;;;;;;4821412;29;20066;-91
2021/10/19 06:00:52;;;;;;;4.97;1.10;;;17.80;99.90;;;;;;4797510;29;20047;-89
2021/10/19 06:03:22;;;;;;;1.48;0.93;;;18.00;99.90;;;;;;4813430;29;20050;-90
2021/10/19 06:05:56;;;;;;;1.33;1.13;;;18.00;99.90;;;;;;4803386;29;20058;-91
2021/10/19 06:08:30;;;;;;;1.80;1.05;;;18.00;99.90;;;;;;4812071;29;20066;-92
2021/10/19 06:11:05;;;;;;;3.85;1.10;;;18.00;99.90;;;;;;4771571;29;20134;-89
2021/10/19 06:13:34;;;;;;;2.17;1.00;;;18.00;99.90;;;;;;4817916;29;20543;-87
2021/10/19 06:16:04;;;;;;;4.13;0.93;;;18.00;99.90;;;;;;4840995;29;20051;-89
2021/10/19 06:18:36;;;;;;;4.87;1.00;;;18.30;99.90;;;;;;4828914;29;20061;-90
2021/10/19 06:21:09;;;;;;;0.95;0.60;;;18.00;99.90;;;;;;4821167;29;20310;-91
2021/10/19 06:23:39;;;;;;;2.08;1.00;;;18.10;99.90;;;;;;4815050;29;20062;-89
2021/10/19 06:26:07;;;;;;;1.70;0.85;;;18.10;99.90;;;;;;4814719;29;20062;-91
2021/10/19 06:28:38;;;;;;;1.98;0.70;;;18.10;99.90;;;;;;4819143;29;20062;-88
2021/10/19 06:31:07;;;;;;;5.72;0.95;;;18.10;99.90;;;;;;4828646;29;21296;-88
2021/10/19 06:33:37;;;;;;;0.93;0.60;;;18.10;99.90;;;;;;4830923;29;20505;-90
2021/10/19 06:36:12;;;;;;;1.23;0.68;;;18.10;99.90;;;;;;4808699;29;20057;-89
2021/10/19 06:38:42;;;;;;;1.43;0.67;;;18.20;99.90;;;;;;4811327;29;20062;-89
2021/10/19 06:41:10;;;;;;;2.35;0.77;;;18.20;99.90;;;;;;4825729;29;20074;-88
2021/10/19 06:43:40;;;;;;;1.67;0.80;;;18.20;99.90;;;;;;4810117;29;20054;-89
2021/10/19 06:46:09;;;;;;;4.00;1.05;;;18.20;99.90;;;;;;4822865;29;20046;-87
2021/10/19 06:48:38;;;;;;;1.25;0.70;;;18.20;99.90;;;;;;4827123;29;20057;-90
2021/10/19 06:51:06;;;;;;;2.28;0.85;;;18.20;99.90;;;;;;4820484;29;20065;-90
2021/10/19 06:53:43;;;;;;;1.75;0.80;;;18.20;99.90;;;;;;4812985;29;20058;-90
2021/10/19 06:56:13;;;;;;;0.82;0.70;;;18.20;99.90;;;;;;4816710;29;20084;-89
2021/10/19 06:58:44;;;;;;;0.98;0.80;;;18.20;99.90;;;;;;4833270;29;20042;-91
2021/10/19 07:01:14;;;;;;;2.40;1.48;;;18.20;99.90;;;;;;4812257;29;20055;-88
2021/10/19 07:03:50;;;;;;;0.70;0.60;;;18.20;99.90;;;;;;4820741;29;20066;-90
2021/10/19 07:06:24;;;;;;;1.35;0.73;;;18.20;99.90;;;;;;4808408;29;20043;-89
2021/10/19 07:08:54;;;;;;;3.13;1.10;;;18.30;99.90;;;;;;4827852;29;20054;-91
2021/10/19 07:11:32;;;;;;;2.63;0.60;;;18.40;99.90;;;;;;4836779;29;20058;-90
2021/10/19 07:14:03;;;;;;;1.70;0.70;;;18.30;99.90;;;;;;4827294;29;20058;-92
2021/10/19 07:16:33;;;;;;;3.07;0.90;;;18.30;99.90;;;;;;4800913;29;20053;-88
2021/10/19 07:19:06;;;;;;;0.93;0.70;;;18.30;99.90;;;;;;4828159;29;20302;-89
2021/10/19 07:21:37;;;;;;;1.77;0.95;;;18.30;99.90;;;;;;4818450;29;20054;-92
2021/10/19 07:24:08;;;;;;;3.92;1.05;;;18.30;99.90;;;;;;4830252;29;20059;-93
2021/10/19 07:26:36;;;;;;;1.33;0.75;;;18.30;99.90;;;;;;4817185;29;20502;-92
2021/10/19 07:29:10;;;;;;;4.97;0.90;;;18.40;99.90;;;;;;4814822;29;20061;-90
2021/10/19 07:31:38;;;;;;;2.25;0.82;;;18.40;99.90;;;;;;4795252;29;20081;-92
2021/10/19 07:34:09;;;;;;;1.55;1.00;;;18.40;99.90;;;;;;4812089;29;20058;-89
2021/10/19 07:36:39;;;;;;;2.70;1.20;;;18.40;99.90;;;;;;4806008;29;20069;-89
2021/10/19 07:39:07;;;;;;;2.13;1.45;;;18.40;99.90;;;;;;4795918;29;20058;-89
2021/10/19 07:41:36;;;;;;;4.93;1.23;;;18.40;99.90;;;;;;4812188;29;20057;-90
2021/10/19 07:44:07;;;;;;;2.50;1.58;;;18.40;99.90;;;;;;4830276;29;20054;-89
2021/10/19 07:46:37;;;;;;;3.25;1.50;;;18.40;99.90;;;;;;4811748;29;20053;-91
2021/10/19 07:49:10;;;;;;;4.05;2.03;;;18.40;99.90;;;;;;4828394;29;20050;-90
2021/10/19 07:51:39;;;;;;;6.30;2.60;;;18.40;99.90;;;;;;4831124;29;20050;-89
2021/10/19 07:54:34;;;;;;;6.28;2.75;;;18.40;99.90;;;;;;4818734;29;20058;-89
2021/10/19 07:57:05;;;;;;;9.43;3.67;;;18.40;99.90;;;;;;4830605;29;20050;-89
2021/10/19 07:59:35;;;;;;;11.45;5.45;;;18.40;99.90;;;;;;4833730;29;20057;-90
2021/10/19 08:02:03;;;;;;;14.50;6.25;;;18.40;99.90;;;;;;4798052;29;20058;-90
2021/10/19 08:04:33;;;;;;;19.02;8.52;;;18.40;99.90;;;;;;4822381;29;20080;-90
2021/10/19 08:07:02;;;;;;;23.85;11.45;;;18.40;99.90;;;;;;4828767;29;20058;-90
2021/10/19 08:09:34;;;;;;;18.63;10.55;;;18.40;99.90;;;;;;4828169;29;20055;-88
2021/10/19 08:12:03;;;;;;;22.98;12.85;;;18.40;99.90;;;;;;4823267;29;20065;-90
2021/10/19 08:14:32;;;;;;;26.67;13.68;;;18.40;99.90;;;;;;4469974;29;10000464;-89
2021/10/19 08:17:00;;;;;;;31.15;15.40;;;18.40;99.90;;;;;;4814085;29;20062;-90
2021/10/19 08:19:28;;;;;;;30.88;15.35;;;18.40;99.90;;;;;;4837529;29;20045;-91
2021/10/19 08:21:57;;;;;;;36.65;15.93;;;18.40;99.90;;;;;;4831788;29;20078;-90
2021/10/19 08:24:25;;;;;;;35.33;18.80;;;18.40;99.90;;;;;;4809970;29;20072;-91
2021/10/19 08:26:54;;;;;;;36.28;15.93;;;18.40;99.90;;;;;;4840146;29;20060;-88
2021/10/19 08:29:23;;;;;;;27.20;15.07;;;18.40;99.90;;;;;;4843303;29;20058;-88
2021/10/19 08:31:54;;;;;;;30.38;15.40;;;18.30;99.90;;;;;;4806857;29;20058;-90
2021/10/19 08:34:24;;;;;;;29.33;15.73;;;18.40;99.90;;;;;;4831302;29;20058;-91
2021/10/19 08:36:52;;;;;;;33.78;15.77;;;18.30;99.90;;;;;;4815842;29;20061;-89
2021/10/19 08:39:26;;;;;;;32.83;18.20;;;18.30;99.90;;;;;;4832937;29;20065;-90
2021/10/19 08:41:54;;;;;;;69.45;16.83;;;18.40;99.90;;;;;;4815075;29;20450;-89
2021/10/19 08:44:23;;;;;;;35.55;16.83;;;18.40;99.90;;;;;;4834191;29;20050;-89
2021/10/19 08:46:53;;;;;;;38.45;18.35;;;18.40;99.90;;;;;;4827742;29;20403;-88
2021/10/19 08:49:30;;;;;;;37.38;17.90;;;18.40;99.90;;;;;;4814634;29;20063;-89
2021/10/19 08:51:59;;;;;;;35.13;17.48;;;18.40;99.90;;;;;;4828194;29;20069;-88
2021/10/19 08:54:28;;;;;;;32.20;17.05;;;18.40;99.90;;;;;;4828486;29;20058;-87
2021/10/19 08:56:58;;;;;;;37.25;17.45;;;18.50;99.90;;;;;;4814088;29;20069;-89
2021/10/19 08:59:26;;;;;;;31.92;18.08;;;18.50;99.90;;;;;;4833890;29;20094;-90
2021/10/19 09:01:58;;;;;;;31.90;17.92;;;18.60;99.90;;;;;;4831832;29;20249;-94
2021/10/19 09:04:31;;;;;;;30.42;17.13;;;18.60;99.90;;;;;;4817969;29;20541;-88
2021/10/19 09:07:00;;;;;;;29.25;17.58;;;18.60;99.90;;;;;;4833969;29;20310;-91
2021/10/19 09:09:28;;;;;;;31.33;16.02;;;18.70;99.90;;;;;;4832258;29;20463;-90
2021/10/19 09:11:58;;;;;;;31.10;18.92;;;18.70;99.90;;;;;;4832565;29;20058;-91
2021/10/19 09:14:38;;;;;;;31.60;18.50;;;18.70;99.90;;;;;;4819387;29;20054;-92
2021/10/19 09:17:10;;;;;;;31.33;19.02;;;17.90;99.90;;;;;;4832569;29;20058;-91
2021/10/19 09:19:44;;;;;;;28.23;17.50;;;18.70;99.90;;;;;;4833616;29;20591;-92
2021/10/19 09:22:13;;;;;;;28.20;17.55;;;18.70;99.90;;;;;;4801686;29;20072;-91
2021/10/19 09:24:45;;;;;;;30.90;17.95;;;18.00;99.90;;;;;;4816219;29;20046;-89
2021/10/19 09:27:19;;;;;;;37.35;20.58;;;18.70;99.90;;;;;;4817561;29;20055;-89
2021/10/19 09:29:53;;;;;;;34.65;17.75;;;18.80;99.90;;;;;;4830247;29;20524;-89
2021/10/19 09:32:23;;;;;;;28.10;18.23;;;18.80;99.90;;;;;;4820194;29;20068;-91
2021/10/19 09:34:51;;;;;;;26.58;16.45;;;18.80;99.90;;;;;;4822970;29;20055;-89
2021/10/19 09:37:21;;;;;;;32.15;18.45;;;18.90;99.90;;;;;;4818121;29;20061;-88
2021/10/19 09:39:51;;;;;;;31.77;18.92;;;18.90;99.90;;;;;;4816969;29;20069;-93
2021/10/19 09:42:26;;;;;;;33.13;17.33;;;18.90;99.90;;;;;;4803693;29;20057;-91
2021/10/19 09:45:00;;;;;;;32.80;16.65;;;18.90;99.90;;;;;;4829480;29;20062;-91
2021/10/19 09:47:38;;;;;;;35.20;19.23;;;19.00;99.90;;;;;;4833711;29;20062;-89
2021/10/19 09:50:09;;;;;;;31.38;17.98;;;19.00;99.90;;;;;;4833993;29;20046;-91
2021/10/19 09:52:43;;;;;;;34.88;18.40;;;19.00;99.90;;;;;;4816263;29;20058;-91
2021/10/19 09:55:26;;;;;;;30.80;17.75;;;19.00;99.90;;;;;;4804965;29;20442;-90
2021/10/19 09:58:04;;;;;;;28.00;16.55;;;19.10;99.90;;;;;;4836220;29;20046;-89
2021/10/19 10:00:49;;;;;;;36.30;19.08;;;19.00;99.90;;;;;;4836949;29;20047;-90
2021/10/19 10:03:23;;;;;;;35.15;17.70;;;19.00;99.90;;;;;;4822491;29;20055;-89
2021/10/19 10:05:55;;;;;;;35.03;17.30;;;19.00;99.90;;;;;;4826396;29;20061;-90
2021/10/19 10:08:26;;;;;;;38.45;18.42;;;19.10;99.90;;;;;;4836204;29;20059;-91
2021/10/19 10:10:56;;;;;;;29.30;17.63;;;19.10;99.90;;;;;;4819967;29;20062;-89
2021/10/19 10:13:35;;;;;;;34.92;17.65;;;19.10;99.90;;;;;;4811458;29;20061;-91
2021/10/19 10:16:13;;;;;;;37.65;18.40;;;19.10;99.90;;;;;;4795834;29;20059;-93
2021/10/19 10:19:14;;;;;;;31.73;18.95;;;19.20;99.90;;;;;;4825694;29;20062;-94
2021/10/19 10:22:15;;;;;;;35.45;20.88;;;18.30;99.90;;;;;;4807201;29;20046;-91
2021/10/19 10:25:13;;;;;;;32.40;16.58;;;18.90;99.90;;;;;;4836480;29;20061;-92
2021/10/19 10:27:54;;;;;;;29.55;19.00;;;18.60;99.90;;;;;;4808221;29;20499;-91
2021/10/19 10:30:58;;;;;;;32.53;18.90;;;19.30;99.90;;;;;;4806459;29;20062;-92
2021/10/19 10:33:47;;;;;;;33.97;18.77;;;19.40;99.90;;;;;;4815993;29;20054;-92
2021/10/19 10:36:22;;;;;;;32.13;18.35;;;19.40;99.90;;;;;;4819924;29;20081;-93
2021/10/19 10:38:55;;;;;;;31.75;18.17;;;19.40;99.90;;;;;;4833365;29;20073;-94
2021/10/19 10:41:44;;;;;;;31.90;16.88;;;19.30;99.90;;;;;;4815040;29;20053;-92
2021/10/19 10:44:22;;;;;;;37.03;18.92;;;19.50;99.90;;;;;;4822273;29;20065;-92
2021/10/19 10:47:04;;;;;;;32.20;19.05;;;19.50;99.90;;;;;;4805609;29;20046;-91
2021/10/19 10:49:36;;;;;;;32.35;19.27;;;19.60;99.90;;;;;;4872201;29;20052;-91
2021/10/19 10:52:16;;;;;;;35.60;19.90;;;19.60;99.90;;;;;;4857585;29;20083;-87
2021/10/19 10:54:57;;;;;;;31.17;17.67;;;19.70;99.90;;;;;;4841038;29;20058;-91
2021/10/19 10:57:25;;;;;;;29.98;17.70;;;19.70;99.90;;;;;;4873099;29;20057;-92
2021/10/19 10:59:56;;;;;;;29.77;16.83;;;18.70;99.90;;;;;;4881213;29;20048;-91
2021/10/19 11:02:26;;;;;;;31.60;18.95;;;19.80;99.90;;;;;;4846401;29;20053;-91
2021/10/19 11:04:59;;;;;;;32.78;16.45;;;19.90;99.90;;;;;;4864523;29;20067;-92
2021/10/19 11:07:33;;;;;;;32.90;18.85;;;20.00;99.90;;;;;;4850304;29;20045;-92
2021/10/19 11:10:16;;;;;;;35.03;18.35;;;19.90;99.90;;;;;;4856773;29;20052;-92
2021/10/19 11:12:45;;;;;;;30.17;17.38;;;20.00;99.90;;;;;;4882776;29;20060;-92
2021/10/19 11:15:18;;;;;;;38.15;20.10;;;20.00;99.90;;;;;;4877757;29;20052;-89
2021/10/19 11:17:50;;;;;;;33.65;18.73;;;20.10;99.90;;;;;;4850849;29;20065;-91
2021/10/19 11:20:21;;;;;;;26.77;17.30;;;20.20;99.90;;;;;;4867119;29;20525;-89
2021/10/19 11:22:51;;;;;;;32.03;17.38;;;19.70;99.90;;;;;;4874190;29;20065;-90
2021/10/19 11:25:24;;;;;;;29.17;18.10;;;20.30;99.90;;;;;;4865868;29;20045;-91
2021/10/19 11:27:59;;;;;;;31.08;18.02;;;20.30;99.90;;;;;;4882913;29;20053;-91
2021/10/19 11:30:32;;;;;;;26.83;17.15;;;20.40;99.90;;;;;;4852868;29;20052;-93
2021/10/19 11:33:06;;;;;;;39.70;19.77;;;20.40;99.90;;;;;;4848431;29;20084;-91
2021/10/19 11:35:34;;;;;;;31.90;18.98;;;20.50;99.90;;;;;;4845452;29;20045;-93
2021/10/19 11:38:04;;;;;;;29.60;15.68;;;20.60;99.90;;;;;;4877975;29;20065;-92
2021/10/19 11:40:35;;;;;;;35.08;18.92;;;20.60;99.90;;;;;;4862853;29;20064;-92
2021/10/19 11:43:06;;;;;;;31.10;17.63;;;20.60;99.90;;;;;;4856280;29;20079;-92
2021/10/19 11:45:35;;;;;;;28.55;16.55;;;20.50;99.90;;;;;;4850572;29;20053;-92
2021/10/19 11:48:05;;;;;;;34.45;20.02;;;20.40;99.90;;;;;;4883982;29;20048;-92
2021/10/19 11:50:37;;;;;;;30.70;18.25;;;20.30;99.90;;;;;;4866799;29;20068;-92
2021/10/19 11:53:10;;;;;;;35.35;18.13;;;20.30;99.90;;;;;;4840658;29;20061;-90
2021/10/19 11:55:53;;;;;;;31.02;16.48;;;20.30;99.90;;;;;;4868663;29;20060;-91
2021/10/19 11:58:24;;;;;;;30.80;17.40;;;20.40;99.90;;;;;;4884573;29;20045;-88
2021/10/19 12:00:53;;;;;;;32.00;18.08;;;20.40;99.90;;;;;;4855421;29;20068;-91
2021/10/19 12:03:31;;;;;;;32.35;18.55;;;20.40;99.90;;;;;;4868717;29;20052;-92
2021/10/19 12:06:10;;;;;;;32.10;18.45;;;21.70;99.90;;;;;;4858030;29;20053;-91
2021/10/19 12:08:43;;;;;;;36.05;17.42;;;20.50;99.90;;;;;;4857847;29;20049;-94
2021/10/19 12:11:22;;;;;;;34.88;17.30;;;20.50;99.90;;;;;;4860763;29;20049;-93
2021/10/19 12:14:02;;;;;;;38.78;18.55;;;20.50;99.90;;;;;;4836702;29;20064;-94
2021/10/19 12:16:36;;;;;;;33.97;18.92;;;20.50;99.90;;;;;;4857532;29;20039;-94
2021/10/19 12:19:12;;;;;;;45.90;17.80;;;20.60;99.90;;;;;;4851113;29;20045;-92
2021/10/19 12:22:10;;;;;;;32.55;17.52;;;20.60;99.90;;;;;;4870265;29;20054;-93
2021/10/19 12:24:43;;;;;;;31.20;18.33;;;20.60;99.90;;;;;;4874812;29;20055;-92
2021/10/19 12:27:18;;;;;;;32.63;17.17;;;20.60;99.90;;;;;;4863718;29;20049;-91
2021/10/19 12:29:55;;;;;;;37.80;19.52;;;20.60;99.90;;;;;;4867462;29;20563;-93
2021/10/19 12:32:39;;;;;;;25.40;15.57;;;20.60;99.90;;;;;;4888283;29;20033;-93
2021/10/19 12:35:34;;;;;;;41.33;17.23;;;20.40;99.90;;;;;;4872027;29;20041;-94
2021/10/19 12:38:16;;;;;;;36.17;16.90;;;20.60;99.90;;;;;;4870842;29;20057;-90
2021/10/19 12:40:47;;;;;;;41.45;20.98;;;20.60;99.90;;;;;;4844493;29;20057;-92
2021/10/19 12:43:18;;;;;;;29.38;16.88;;;20.70;99.90;;;;;;4866981;29;20049;-90
2021/10/19 12:46:11;;;;;;;31.33;16.80;;;20.70;99.90;;;;;;4882458;29;20056;-89
2021/10/19 12:48:47;;;;;;;33.10;16.45;;;20.80;99.90;;;;;;4883679;29;20049;-89
2021/10/19 12:51:37;;;;;;;38.67;18.38;;;20.80;99.90;;;;;;4891924;23;20037;-82
2021/10/19 12:54:07;;;;;;;27.35;14.20;;;20.80;99.90;;;;;;4869177;29;20048;-85
2021/10/19 12:56:38;;;;;;;29.15;17.02;;;20.80;99.90;;;;;;4869106;29;20534;-84
2021/10/19 12:59:06;;;;;;;;;;;20.80;99.90;;;;;;4886536;29;20061;-83
2021/10/19 13:01:42;;;;;;;25.58;13.85;;;20.80;99.90;;;;;;4871145;29;19927;-83
2021/10/19 13:04:10;;;;;;;45.15;14.38;;;20.80;99.90;;;;;;4886018;29;20045;-82